createdAt,value
2022-12-15T00:02:36.471Z,5.88
2022-12-15T00:05:22.462Z,5.87
2022-12-15T00:08:09.411Z,5.88
2022-12-15T00:10:54.785Z,5.87
2022-12-15T00:13:40.509Z,5.79
2022-12-15T00:16:27.033Z,5.79
2022-12-15T00:19:12.348Z,5.77
2022-12-15T00:21:57.834Z,5.76
2022-12-15T00:24:44.819Z,5.76
2022-12-15T00:27:35.499Z,5.76
2022-12-15T00:30:21.085Z,5.77
2022-12-15T00:33:06.746Z,5.72
2022-12-15T00:35:51.984Z,5.72
2022-12-15T00:38:37.476Z,5.76
2022-12-15T00:41:07.634Z,5.76
2022-12-15T00:43:37.436Z,5.76
2022-12-15T00:46:22.971Z,5.76
2022-12-15T00:48:51.143Z,5.79
2022-12-15T00:51:19.053Z,5.78
2022-12-15T00:54:05.009Z,5.76
2022-12-15T00:56:52.106Z,5.78
2022-12-15T00:59:37.516Z,5.77
2022-12-15T01:02:23.389Z,5.77
2022-12-15T01:05:09.008Z,5.79
2022-12-15T01:07:54.493Z,5.80
2022-12-15T01:10:40.016Z,5.80
2022-12-15T01:13:31.567Z,5.80
2022-12-15T01:16:17.269Z,5.79
2022-12-15T01:19:02.690Z,5.80
2022-12-15T01:21:32.906Z,5.83
2022-12-15T01:24:00.849Z,5.84
2022-12-15T01:26:28.763Z,5.84
2022-12-15T01:28:58.157Z,5.85
2022-12-15T01:31:26.136Z,5.83
2022-12-15T01:33:55.376Z,5.83
2022-12-15T01:36:23.306Z,5.85
2022-12-15T01:38:54.285Z,5.86
2022-12-15T01:41:22.493Z,5.88
2022-12-15T01:43:50.416Z,5.89
2022-12-15T01:46:21.481Z,5.90
2022-12-15T01:48:55.165Z,5.85
2022-12-15T01:51:29.861Z,5.85
2022-12-15T01:54:04.878Z,5.85
2022-12-15T01:56:37.783Z,5.84
2022-12-15T01:59:09.013Z,5.86
2022-12-15T02:01:38.684Z,5.88
2022-12-15T02:04:06.824Z,5.89
2022-12-15T02:06:34.883Z,5.91
2022-12-15T02:09:03.592Z,5.89
2022-12-15T02:11:52.247Z,5.89
2022-12-15T02:14:29.440Z,5.86
2022-12-15T02:17:08.170Z,5.88
2022-12-15T02:19:51.721Z,5.90
2022-12-15T02:22:34.265Z,5.88
2022-12-15T02:25:32.981Z,5.91
2022-12-15T02:28:05.692Z,5.88
2022-12-15T02:30:46.139Z,5.83
2022-12-15T02:33:27.427Z,5.88
2022-12-15T02:35:59.079Z,5.89
2022-12-15T02:38:32.442Z,5.91
2022-12-15T02:41:01.801Z,5.92
2022-12-15T02:43:31.413Z,5.92
2022-12-15T02:46:15.650Z,5.95
2022-12-15T02:48:53.879Z,5.97
2022-12-15T02:51:35.652Z,5.95
2022-12-15T02:54:36.349Z,5.96
2022-12-15T02:57:14.302Z,5.96
2022-12-15T02:59:47.478Z,5.97
2022-12-15T03:02:17.044Z,5.97
2022-12-15T03:04:45.652Z,5.95
2022-12-15T03:07:15.323Z,5.96
2022-12-15T03:09:43.443Z,5.95
2022-12-15T03:12:11.663Z,5.98
2022-12-15T03:14:39.587Z,5.99
2022-12-15T03:17:07.665Z,5.96
2022-12-15T03:19:36.980Z,6.00
2022-12-15T03:22:05.436Z,5.98
2022-12-15T03:24:33.363Z,5.93
2022-12-15T03:27:01.317Z,5.86
2022-12-15T03:29:29.271Z,5.82
2022-12-15T03:31:57.293Z,5.65
2022-12-15T03:34:25.253Z,5.37
2022-12-15T03:36:54.761Z,5.44
2022-12-15T03:39:22.689Z,5.03
2022-12-15T03:41:50.609Z,5.02
2022-12-15T03:44:18.527Z,5.21
2022-12-15T03:46:46.436Z,5.28
2022-12-15T03:49:14.354Z,5.17
2022-12-15T03:51:42.272Z,5.24
2022-12-15T03:54:13.118Z,5.27
2022-12-15T03:56:41.079Z,5.31
2022-12-15T03:59:09.019Z,5.35
2022-12-15T04:01:37.982Z,5.31
2022-12-15T04:04:06.415Z,5.34
2022-12-15T04:06:34.374Z,5.34
2022-12-15T04:09:02.279Z,5.43
2022-12-15T04:11:31.581Z,5.45
2022-12-15T04:13:59.502Z,5.47
2022-12-15T04:16:27.456Z,5.26
2022-12-15T04:19:09.253Z,5.51
2022-12-15T04:21:37.169Z,5.52
2022-12-15T04:24:23.192Z,5.53
2022-12-15T04:27:09.678Z,5.52
2022-12-15T04:29:54.800Z,5.55
2022-12-15T04:32:40.335Z,5.53
2022-12-15T04:35:26.335Z,5.55
2022-12-15T04:38:12.340Z,5.56
2022-12-15T04:40:57.704Z,5.53
2022-12-15T04:43:44.525Z,5.51
2022-12-15T04:46:30.276Z,5.49
2022-12-15T04:49:15.775Z,5.51
2022-12-15T04:52:01.245Z,5.51
2022-12-15T04:54:46.844Z,5.42
2022-12-15T04:57:32.266Z,5.29
2022-12-15T05:00:19.043Z,5.20
2022-12-15T05:03:04.285Z,5.12
2022-12-15T05:05:49.741Z,5.13
2022-12-15T05:08:35.109Z,5.10
2022-12-15T05:11:20.430Z,4.92
2022-12-15T05:14:05.829Z,4.56
2022-12-15T05:16:52.636Z,4.81
2022-12-15T05:19:38.072Z,4.83
2022-12-15T05:22:23.476Z,4.84
2022-12-15T05:25:08.910Z,4.53
2022-12-15T05:27:54.437Z,4.52
2022-12-15T05:30:39.940Z,4.58
2022-12-15T05:33:09.265Z,4.71
2022-12-15T05:35:37.206Z,4.83
2022-12-15T05:38:06.622Z,4.85
2022-12-15T05:40:34.625Z,4.79
2022-12-15T05:43:02.591Z,4.72
2022-12-15T05:45:30.602Z,4.64
2022-12-15T05:47:58.537Z,4.54
2022-12-15T05:50:27.900Z,4.38
2022-12-15T05:52:55.819Z,4.41
2022-12-15T05:55:23.732Z,4.35
2022-12-15T05:57:55.147Z,4.35
2022-12-15T06:00:23.645Z,4.26
2022-12-15T06:02:51.644Z,4.36
2022-12-15T06:05:19.614Z,4.33
2022-12-15T06:07:48.925Z,4.25
2022-12-15T06:10:16.970Z,4.17
2022-12-15T06:12:44.957Z,4.03
2022-12-15T06:15:13.047Z,3.95
2022-12-15T06:17:41.019Z,3.89
2022-12-15T06:20:09.530Z,3.96
2022-12-15T06:22:37.461Z,3.87
2022-12-15T06:25:07.886Z,3.73
2022-12-15T06:27:36.981Z,3.79
2022-12-15T06:30:05.581Z,3.61
2022-12-15T06:32:36.383Z,3.60
2022-12-15T06:35:04.326Z,3.62
2022-12-15T06:37:32.228Z,3.62
2022-12-15T06:40:00.903Z,3.66
2022-12-15T06:42:30.212Z,3.65
2022-12-15T06:44:58.131Z,3.61
2022-12-15T06:47:26.053Z,3.62
2022-12-15T06:49:53.957Z,3.53
2022-12-15T06:52:21.865Z,3.59
2022-12-15T06:54:49.821Z,3.57
2022-12-15T06:57:17.753Z,3.58
2022-12-15T06:59:47.097Z,3.52
2022-12-15T07:02:19.145Z,3.68
2022-12-15T07:04:49.068Z,3.66
2022-12-15T07:07:17.035Z,3.64
2022-12-15T07:09:44.950Z,3.64
2022-12-15T07:12:13.820Z,3.71
2022-12-15T07:14:41.725Z,3.61
2022-12-15T07:17:11.590Z,3.47
2022-12-15T07:19:39.537Z,3.56
2022-12-15T07:22:07.433Z,3.52
2022-12-15T07:24:35.399Z,3.52
2022-12-15T07:27:03.308Z,3.55
2022-12-15T07:29:31.441Z,3.70
2022-12-15T07:32:00.941Z,3.76
2022-12-15T07:34:30.399Z,3.82
2022-12-15T07:36:58.311Z,3.64
2022-12-15T07:39:27.439Z,3.63
2022-12-15T07:41:55.350Z,3.74
2022-12-15T07:44:23.305Z,3.83
2022-12-15T07:46:51.261Z,3.97
2022-12-15T07:49:20.629Z,3.94
2022-12-15T07:51:49.937Z,3.99
2022-12-15T07:54:18.049Z,3.96
2022-12-15T07:56:50.353Z,4.00
2022-12-15T07:59:18.733Z,4.01
2022-12-15T08:01:46.944Z,4.06
2022-12-15T08:04:15.101Z,4.06
2022-12-15T08:06:43.007Z,4.12
2022-12-15T08:09:12.728Z,4.10
2022-12-15T08:11:40.628Z,4.16
2022-12-15T08:14:15.088Z,3.99
2022-12-15T08:16:45.432Z,4.01
2022-12-15T08:19:15.353Z,4.04
2022-12-15T08:21:45.553Z,4.14
2022-12-15T08:24:15.748Z,4.21
2022-12-15T08:26:50.251Z,4.38
2022-12-15T08:32:07.622Z,4.32
2022-12-15T08:34:35.945Z,4.46
2022-12-15T08:37:03.940Z,4.22
2022-12-15T08:39:33.310Z,4.20
2022-12-15T08:42:01.396Z,4.17
2022-12-15T08:44:29.332Z,4.19
2022-12-15T08:46:57.284Z,4.22
2022-12-15T08:49:25.861Z,4.23
2022-12-15T08:51:53.753Z,4.21
2022-12-15T08:54:21.916Z,4.28
2022-12-15T08:56:51.357Z,4.36
2022-12-15T08:59:20.059Z,4.42
2022-12-15T09:01:48.395Z,4.46
2022-12-15T09:04:16.706Z,4.56
2022-12-15T09:06:50.450Z,4.59
2022-12-15T09:09:18.988Z,4.58
2022-12-15T09:11:46.947Z,4.49
2022-12-15T09:14:16.369Z,4.45
2022-12-15T09:16:44.410Z,4.41
2022-12-15T09:19:12.508Z,4.50
2022-12-15T09:21:43.078Z,4.63
2022-12-15T09:24:22.165Z,4.68
2022-12-15T09:26:54.252Z,4.73
2022-12-15T09:29:23.541Z,4.82
2022-12-15T09:31:51.542Z,4.90
2022-12-15T09:34:19.457Z,4.98
2022-12-15T09:36:47.450Z,4.98
2022-12-15T09:39:17.019Z,4.90
2022-12-15T09:41:52.854Z,4.86
2022-12-15T09:44:25.169Z,4.95
2022-12-15T09:47:05.835Z,5.03
2022-12-15T09:49:49.612Z,5.12
2022-12-15T09:52:20.493Z,4.92
2022-12-15T09:54:48.493Z,4.93
2022-12-15T09:57:26.470Z,5.05
2022-12-15T10:00:10.145Z,5.04
2022-12-15T10:02:56.853Z,5.18
2022-12-15T10:06:06.883Z,5.14
2022-12-15T10:08:30.441Z,5.19
2022-12-15T10:11:01.548Z,5.21
2022-12-15T10:13:39.341Z,5.10
2022-12-15T10:16:19.919Z,5.14
2022-12-15T10:19:01.436Z,5.15
2022-12-15T10:21:33.212Z,5.15
2022-12-15T10:24:31.575Z,5.22
2022-12-15T10:27:23.829Z,5.20
2022-12-15T10:30:01.526Z,5.24
2022-12-15T10:32:43.844Z,5.21
2022-12-15T10:35:17.144Z,5.13
2022-12-15T10:37:45.093Z,5.15
2022-12-15T10:40:18.849Z,5.30
2022-12-15T10:42:49.437Z,5.13
2022-12-15T10:45:36.779Z,5.08
2022-12-15T10:48:07.149Z,5.10
2022-12-15T10:50:36.135Z,5.20
2022-12-15T10:53:09.746Z,5.26
2022-12-15T10:55:39.856Z,5.26
2022-12-15T10:58:18.851Z,5.26
2022-12-15T11:00:50.967Z,5.13
2022-12-15T11:03:25.120Z,5.14
2022-12-15T11:05:54.466Z,5.18
2022-12-15T11:08:23.804Z,5.21
2022-12-15T11:11:11.140Z,5.15
2022-12-15T11:13:39.737Z,5.31
2022-12-15T11:16:25.859Z,5.31
2022-12-15T11:19:03.669Z,5.36
2022-12-15T11:21:37.034Z,5.44
2022-12-15T11:24:11.804Z,5.56
2022-12-15T11:26:50.083Z,5.58
2022-12-15T11:29:34.886Z,5.53
2022-12-15T11:32:07.043Z,5.59
2022-12-15T11:34:39.543Z,5.58
2022-12-15T11:37:39.424Z,5.67
2022-12-15T11:40:32.144Z,5.50
2022-12-15T11:43:25.226Z,5.57
2022-12-15T11:46:05.624Z,5.70
2022-12-15T11:48:40.547Z,5.79
2022-12-15T11:51:15.609Z,5.69
2022-12-15T11:54:03.704Z,5.80
2022-12-15T11:56:36.695Z,5.81
2022-12-15T11:59:39.377Z,5.85
2022-12-15T12:02:38.062Z,5.84
2022-12-15T12:05:27.726Z,5.82
2022-12-15T12:08:05.343Z,5.94
2022-12-15T12:10:42.650Z,5.82
2022-12-15T12:13:23.399Z,5.84
2022-12-15T12:15:58.886Z,5.76
2022-12-15T12:18:32.342Z,5.67
2022-12-15T12:21:07.235Z,5.62
2022-12-15T12:23:42.640Z,5.60
2022-12-15T12:26:18.123Z,5.70
2022-12-15T12:28:50.210Z,5.61
2022-12-15T12:31:28.143Z,5.43
2022-12-15T12:34:03.592Z,5.51
2022-12-15T12:36:31.776Z,5.60
2022-12-15T12:39:01.525Z,5.52
2022-12-15T12:41:37.998Z,5.67
2022-12-15T12:44:14.683Z,5.67
2022-12-15T12:46:45.016Z,5.63
2022-12-15T12:49:26.183Z,5.56
2022-12-15T12:51:56.615Z,5.62
2022-12-15T12:54:45.042Z,5.65
2022-12-15T12:57:33.934Z,5.72
2022-12-15T13:00:03.513Z,5.64
2022-12-15T13:02:50.553Z,5.62
2022-12-15T13:05:31.551Z,5.76
2022-12-15T13:08:27.746Z,5.69
2022-12-15T13:10:57.424Z,5.69
2022-12-15T13:13:51.065Z,5.79
2022-12-15T13:16:24.015Z,5.66
2022-12-15T13:19:02.112Z,5.78
2022-12-15T13:21:55.142Z,5.76
2022-12-15T13:24:37.556Z,5.63
2022-12-15T13:27:15.373Z,5.52
2022-12-15T13:30:00.673Z,5.56
2022-12-15T13:32:32.480Z,5.65
2022-12-15T13:35:17.832Z,5.67
2022-12-15T13:37:50.585Z,5.53
2022-12-15T13:40:51.209Z,5.68
2022-12-15T13:43:42.288Z,5.55
2022-12-15T13:46:17.528Z,5.59
2022-12-15T13:48:49.373Z,5.57
2022-12-15T13:51:30.196Z,5.63
2022-12-15T13:54:03.131Z,5.68
2022-12-15T13:56:46.267Z,5.77
2022-12-15T13:59:23.771Z,5.78
2022-12-15T14:01:53.725Z,5.73
2022-12-15T14:04:22.800Z,5.75
2022-12-15T14:06:54.128Z,5.80
2022-12-15T14:09:26.609Z,5.75
2022-12-15T14:11:54.948Z,5.51
2022-12-15T14:14:30.244Z,5.58
2022-12-15T14:17:01.205Z,5.61
2022-12-15T14:19:38.732Z,5.65
2022-12-15T14:22:27.021Z,5.64
2022-12-15T14:25:01.420Z,5.62
2022-12-15T14:27:31.421Z,5.65
2022-12-15T14:30:29.547Z,5.63
2022-12-15T14:33:02.901Z,5.58
2022-12-15T14:35:34.868Z,5.57
2022-12-15T14:38:07.553Z,5.61
2022-12-15T14:40:37.255Z,5.57
2022-12-15T14:43:06.050Z,5.30
2022-12-15T14:45:35.484Z,5.13
2022-12-15T14:50:59.785Z,5.34
2022-12-15T14:53:32.817Z,5.27
2022-12-15T14:56:14.237Z,5.44
2022-12-15T14:58:42.678Z,5.40
2022-12-15T15:01:35.604Z,5.46
2022-12-15T15:04:05.306Z,5.35
2022-12-15T15:06:37.375Z,5.36
2022-12-15T15:09:17.833Z,5.50
2022-12-15T15:11:46.157Z,5.52
2022-12-15T15:14:17.864Z,5.65
2022-12-15T15:17:06.189Z,5.67
2022-12-15T15:19:39.598Z,5.75
2022-12-15T15:22:31.293Z,5.77
2022-12-15T15:24:59.188Z,5.82
2022-12-15T15:27:33.872Z,5.83
2022-12-15T15:30:18.553Z,5.81
2022-12-15T15:32:55.069Z,5.40
2022-12-15T15:35:24.558Z,5.67
2022-12-15T15:37:53.634Z,5.70
2022-12-15T15:40:21.583Z,5.39
2022-12-15T15:42:49.473Z,5.53
2022-12-15T15:45:17.469Z,5.58
2022-12-15T15:47:49.543Z,5.47
2022-12-15T15:50:26.740Z,5.58
2022-12-15T15:52:54.732Z,5.55
2022-12-15T15:55:28.229Z,5.55
2022-12-15T15:57:56.371Z,5.52
2022-12-15T16:00:26.162Z,5.53
2022-12-15T16:02:54.692Z,5.60
2022-12-15T16:05:24.161Z,5.64
2022-12-15T16:07:52.119Z,5.74
2022-12-15T16:10:21.619Z,5.74
2022-12-15T16:12:52.024Z,5.72
2022-12-15T16:15:22.234Z,5.68
2022-12-15T16:17:50.586Z,5.67
2022-12-15T16:20:20.577Z,5.68
2022-12-15T16:22:55.819Z,5.65
2022-12-15T16:25:34.684Z,5.64
2022-12-15T16:28:14.316Z,5.68
2022-12-15T16:30:43.258Z,5.72
2022-12-15T16:33:11.938Z,5.69
2022-12-15T16:35:41.632Z,5.66
2022-12-15T16:38:17.241Z,5.52
2022-12-15T16:40:45.184Z,5.61
2022-12-15T16:43:17.073Z,5.63
2022-12-15T16:45:47.327Z,5.63
2022-12-15T16:48:15.903Z,5.68
2022-12-15T16:50:45.909Z,5.68
2022-12-15T16:53:18.431Z,5.67
2022-12-15T16:55:47.860Z,5.68
2022-12-15T16:58:18.022Z,5.66
2022-12-15T17:00:46.400Z,5.61
2022-12-15T17:03:15.400Z,5.61
2022-12-15T17:05:45.038Z,5.65
2022-12-15T17:08:20.148Z,5.64
2022-12-15T17:10:48.980Z,5.63
2022-12-15T17:13:36.561Z,5.51
2022-12-15T17:16:07.382Z,5.53
2022-12-15T17:18:35.749Z,5.57
2022-12-15T17:21:07.872Z,5.59
2022-12-15T17:23:37.660Z,5.51
2022-12-15T17:26:28.753Z,5.54
2022-12-15T17:28:54.745Z,5.53
2022-12-15T17:31:25.383Z,5.59
2022-12-15T17:33:55.656Z,5.51
2022-12-15T17:36:25.636Z,5.52
2022-12-15T17:38:58.116Z,5.57
2022-12-15T17:41:57.929Z,5.56
2022-12-15T17:44:32.878Z,5.58
2022-12-15T17:47:02.149Z,5.57
2022-12-15T17:49:35.428Z,5.55
2022-12-15T17:52:06.682Z,5.56
2022-12-15T17:54:36.034Z,5.56
2022-12-15T17:57:04.035Z,5.57
2022-12-15T17:59:32.344Z,5.51
2022-12-15T18:02:00.432Z,5.57
2022-12-15T18:04:28.441Z,5.55
2022-12-15T18:07:01.505Z,5.57
2022-12-15T18:09:30.252Z,5.53
2022-12-15T18:11:59.592Z,5.56
2022-12-15T18:14:29.248Z,5.46
2022-12-15T18:16:57.191Z,5.43
2022-12-15T18:19:27.987Z,5.27
2022-12-15T18:21:59.732Z,5.38
2022-12-15T18:24:28.142Z,5.37
2022-12-15T18:26:56.056Z,5.38
2022-12-15T18:29:25.531Z,5.34
2022-12-15T18:31:54.167Z,5.33
2022-12-15T18:34:23.388Z,5.34
2022-12-15T18:36:51.667Z,5.32
2022-12-15T18:39:20.903Z,5.30
2022-12-15T18:41:49.584Z,5.27
2022-12-15T18:44:23.235Z,5.27
2022-12-15T18:46:52.610Z,5.26
2022-12-15T18:49:23.627Z,5.31
2022-12-15T18:51:51.860Z,5.29
2022-12-15T18:54:22.273Z,5.30
2022-12-15T18:56:50.667Z,5.28
2022-12-15T18:59:20.278Z,5.24
2022-12-15T19:01:50.012Z,5.19
2022-12-15T19:04:19.446Z,5.14
2022-12-15T19:06:47.503Z,5.13
2022-12-15T19:09:18.405Z,5.23
2022-12-15T19:12:17.743Z,5.24
2022-12-15T19:14:47.169Z,5.21
2022-12-15T19:17:34.646Z,5.19
2022-12-15T19:20:22.913Z,5.21
2022-12-15T19:22:51.284Z,5.16
2022-12-15T19:25:25.735Z,5.15
2022-12-15T19:27:58.759Z,5.17
2022-12-15T19:30:29.281Z,5.15
2022-12-15T19:32:57.814Z,5.15
2022-12-15T19:35:29.251Z,5.17
2022-12-15T19:37:59.385Z,5.12
2022-12-15T19:40:30.467Z,5.13
2022-12-15T19:43:00.389Z,5.07
2022-12-15T19:45:30.200Z,5.05
2022-12-15T19:47:58.469Z,5.11
2022-12-15T19:50:31.177Z,5.06
2022-12-15T19:53:01.598Z,4.98
2022-12-15T19:55:33.689Z,5.02
2022-12-15T19:58:02.032Z,4.93
2022-12-15T20:00:29.962Z,4.94
2022-12-15T20:02:58.061Z,4.84
2022-12-15T20:05:27.547Z,4.85
2022-12-15T20:07:56.283Z,4.75
2022-12-15T20:10:32.187Z,4.61
2022-12-15T20:13:01.332Z,4.68
2022-12-15T20:15:29.549Z,4.69
2022-12-15T20:17:57.953Z,4.75
2022-12-15T20:20:29.939Z,4.77
2022-12-15T20:23:01.561Z,4.68
2022-12-15T20:25:33.616Z,4.63
2022-12-15T20:28:02.409Z,4.53
2022-12-15T20:30:32.854Z,4.53
2022-12-15T20:33:01.685Z,4.43
2022-12-15T20:35:33.364Z,4.36
2022-12-15T20:38:04.388Z,4.41
2022-12-15T20:40:32.944Z,4.46
2022-12-15T20:43:00.882Z,4.30
2022-12-15T20:45:28.852Z,4.37
2022-12-15T20:47:57.265Z,4.22
2022-12-15T20:50:28.999Z,4.12
2022-12-15T20:53:00.973Z,4.10
2022-12-15T20:55:29.038Z,4.02
2022-12-15T20:57:57.007Z,3.94
2022-12-15T21:00:24.941Z,3.88
2022-12-15T21:02:55.283Z,3.99
2022-12-15T21:05:26.636Z,3.99
2022-12-15T21:07:54.574Z,4.04
2022-12-15T21:10:23.918Z,3.99
2022-12-15T21:12:52.576Z,4.03
2022-12-15T21:15:22.870Z,3.95
2022-12-15T21:18:16.970Z,3.85
2022-12-15T21:20:42.997Z,3.83
2022-12-15T21:23:24.019Z,3.77
2022-12-15T21:25:53.714Z,3.56
2022-12-15T21:28:22.787Z,3.64
2022-12-15T21:30:51.762Z,3.68
2022-12-15T21:33:20.680Z,3.64
2022-12-15T21:35:49.177Z,3.52
2022-12-15T21:38:28.471Z,3.33
2022-12-15T21:41:00.061Z,3.50
2022-12-15T21:43:30.546Z,3.23
2022-12-15T21:45:58.854Z,3.32
2022-12-15T21:48:44.040Z,3.30
2022-12-15T21:51:15.260Z,3.49
2022-12-15T21:53:44.507Z,3.55
2022-12-15T21:56:17.613Z,3.31
2022-12-15T21:58:46.066Z,3.53
2022-12-15T22:01:15.934Z,3.67
2022-12-15T22:03:48.020Z,3.76
2022-12-15T22:06:19.903Z,3.53
2022-12-15T22:08:48.183Z,3.62
2022-12-15T22:11:26.242Z,3.67
2022-12-15T22:13:56.167Z,3.80
2022-12-15T22:16:24.796Z,3.81
2022-12-15T22:18:55.584Z,3.80
2022-12-15T22:21:24.273Z,3.76
2022-12-15T22:23:52.771Z,3.75
2022-12-15T22:26:23.968Z,3.77
2022-12-15T22:28:52.696Z,3.75
2022-12-15T22:31:22.886Z,3.74
2022-12-15T22:33:50.915Z,3.62
2022-12-15T22:36:18.948Z,3.69
2022-12-15T22:38:47.043Z,3.67
2022-12-15T22:41:19.520Z,3.62
2022-12-15T22:43:51.974Z,3.59
2022-12-15T22:46:22.315Z,3.57
2022-12-15T22:48:52.373Z,3.53
2022-12-15T22:51:20.872Z,3.52
2022-12-15T22:53:48.780Z,3.49
2022-12-15T22:56:25.162Z,3.37
2022-12-15T22:58:59.780Z,3.42
2022-12-15T23:01:28.541Z,3.00
2022-12-15T23:03:57.028Z,3.22
2022-12-15T23:06:27.203Z,3.33
2022-12-15T23:08:56.309Z,3.29
2022-12-15T23:11:38.946Z,3.33
2022-12-15T23:14:10.356Z,3.38
2022-12-15T23:16:37.937Z,3.35
2022-12-15T23:19:08.360Z,3.25
2022-12-15T23:21:37.279Z,3.05
2022-12-15T23:24:05.648Z,3.18
2022-12-15T23:26:34.719Z,3.06
2022-12-15T23:29:02.636Z,2.95
2022-12-15T23:31:32.118Z,3.02
2022-12-15T23:34:00.164Z,3.00
2022-12-15T23:36:28.244Z,2.98
2022-12-15T23:38:57.947Z,3.00
2022-12-15T23:41:25.999Z,3.03
2022-12-15T23:43:53.880Z,3.06
2022-12-15T23:46:21.845Z,3.07
2022-12-15T23:48:51.940Z,3.08
2022-12-15T23:51:21.560Z,3.16
2022-12-15T23:53:49.917Z,3.13
2022-12-15T23:56:21.958Z,3.07
2022-12-15T23:58:55.772Z,2.96
